createdAt,value
2019-01-16T00:00:36.845Z,6.10
2019-01-16T00:01:32.236Z,6.10
2019-01-16T00:02:40.984Z,6.05
2019-01-16T00:03:29.983Z,6.28
2019-01-16T00:04:19.422Z,6.05
2019-01-16T00:05:19.341Z,5.85
2019-01-16T00:06:09.664Z,6.22
2019-01-16T00:07:21.469Z,6.00
2019-01-16T00:08:21.132Z,5.87
2019-01-16T00:09:16.295Z,5.50
2019-01-16T00:10:11.612Z,6.33
2019-01-16T00:10:58.701Z,5.50
2019-01-16T00:11:58.544Z,6.00
2019-01-16T00:12:57.186Z,6.37
2019-01-16T00:13:48.289Z,6.55
2019-01-16T00:14:43.776Z,5.83
2019-01-16T00:15:40.535Z,5.85
2019-01-16T00:16:52.548Z,5.45
2019-01-16T00:17:47.369Z,6.00
2019-01-16T00:18:53.613Z,6.05
2019-01-16T00:20:05.488Z,5.90
2019-01-16T00:21:01.427Z,5.50
2019-01-16T00:22:08.925Z,5.80
2019-01-16T00:23:14.635Z,7.03
2019-01-16T00:24:11.788Z,5.80
2019-01-16T00:25:12.298Z,5.50
2019-01-16T00:26:08.037Z,5.70
2019-01-16T00:27:07.608Z,6.40
2019-01-16T00:28:03.315Z,6.25
2019-01-16T00:29:16.121Z,5.87
2019-01-16T00:30:05.618Z,5.70
2019-01-16T00:31:02.620Z,7.05
2019-01-16T00:32:03.434Z,5.97
2019-01-16T00:33:12.327Z,6.30
2019-01-16T00:34:25.167Z,6.28
2019-01-16T00:35:20.869Z,6.30
2019-01-16T00:36:21.492Z,5.53
2019-01-16T00:37:27.750Z,5.87
2019-01-16T00:38:20.063Z,5.92
2019-01-16T00:39:32.249Z,6.62
2019-01-16T00:40:33.798Z,6.35
2019-01-16T00:41:23.973Z,6.00
2019-01-16T00:42:24.307Z,6.85
2019-01-16T00:43:45.800Z,6.50
2019-01-16T00:44:52.061Z,6.10
2019-01-16T00:45:47.904Z,5.62
2019-01-16T00:46:48.056Z,6.62
2019-01-16T00:47:40.220Z,6.08
2019-01-16T00:48:32.956Z,6.47
2019-01-16T00:49:28.321Z,6.33
2019-01-16T00:50:34.896Z,6.20
2019-01-16T00:51:31.820Z,6.67
2019-01-16T00:52:29.277Z,6.65
2019-01-16T00:53:17.710Z,6.97
2019-01-16T00:54:18.521Z,6.30
2019-01-16T00:55:30.648Z,6.12
2019-01-16T00:56:42.711Z,6.10
2019-01-16T00:57:35.062Z,6.95
2019-01-16T00:58:36.091Z,6.80
2019-01-16T00:59:50.618Z,6.30
2019-01-16T01:00:50.796Z,6.50
2019-01-16T01:01:46.935Z,6.95
2019-01-16T01:02:41.970Z,6.55
2019-01-16T01:03:39.357Z,6.83
2019-01-16T01:04:39.368Z,6.62
2019-01-16T01:05:38.469Z,6.62
2019-01-16T01:06:29.367Z,7.40
2019-01-16T01:07:32.558Z,6.78
2019-01-16T01:08:41.936Z,7.40
2019-01-16T01:09:37.779Z,6.90
2019-01-16T01:10:27.827Z,6.60
2019-01-16T01:11:25.195Z,7.30
2019-01-16T01:12:21.946Z,7.70
2019-01-16T01:13:42.977Z,6.85
2019-01-16T01:14:39.141Z,7.87
2019-01-16T01:15:42.121Z,7.58
2019-01-16T01:16:39.838Z,7.83
2019-01-16T01:18:00.944Z,8.03
2019-01-16T01:19:07.346Z,7.47
2019-01-16T01:20:13.776Z,7.65
2019-01-16T01:21:17.549Z,7.78
2019-01-16T01:22:26.861Z,7.65
2019-01-16T01:23:20.112Z,8.75
2019-01-16T01:24:26.994Z,8.03
2019-01-16T01:25:39.612Z,8.40
2019-01-16T01:26:38.399Z,9.05
2019-01-16T01:27:41.867Z,7.08
2019-01-16T01:28:38.429Z,8.10
2019-01-16T01:29:25.044Z,9.05
2019-01-16T01:30:28.284Z,7.28
2019-01-16T01:31:31.251Z,7.53
2019-01-16T01:32:31.260Z,7.30
2019-01-16T01:33:34.643Z,8.53
2019-01-16T01:34:22.601Z,7.83
2019-01-16T01:35:18.681Z,8.13
2019-01-16T01:36:22.579Z,8.43
2019-01-16T01:37:25.937Z,8.23
2019-01-16T01:38:21.971Z,7.90
2019-01-16T01:39:17.386Z,8.45
2019-01-16T01:40:23.016Z,8.70
2019-01-16T01:41:20.259Z,8.45
2019-01-16T01:42:22.823Z,7.78
2019-01-16T01:43:34.661Z,6.78
2019-01-16T01:44:46.731Z,8.98
2019-01-16T01:45:55.719Z,8.03
2019-01-16T01:46:50.761Z,8.30
2019-01-16T01:47:50.791Z,8.13
2019-01-16T01:49:05.838Z,8.70
2019-01-16T01:50:05.386Z,8.00
2019-01-16T01:51:05.133Z,8.23
2019-01-16T01:52:08.043Z,8.15
2019-01-16T01:53:04.884Z,8.28
2019-01-16T01:54:05.631Z,8.20
2019-01-16T01:55:05.345Z,8.60
2019-01-16T01:55:54.330Z,8.50
2019-01-16T01:57:09.151Z,8.60
2019-01-16T01:58:11.981Z,9.43
2019-01-16T01:59:12.620Z,8.87
2019-01-16T02:00:07.693Z,9.63
2019-01-16T02:00:57.113Z,9.40
2019-01-16T02:02:11.483Z,8.85
2019-01-16T02:03:08.227Z,8.78
2019-01-16T02:04:01.128Z,7.73
2019-01-16T02:05:00.844Z,8.27
2019-01-16T02:05:56.136Z,9.00
2019-01-16T02:06:48.970Z,8.43
2019-01-16T02:07:46.639Z,9.40
2019-01-16T02:08:49.306Z,8.57
2019-01-16T02:09:44.499Z,8.63
2019-01-16T02:10:41.227Z,8.80
2019-01-16T02:11:43.985Z,8.95
2019-01-16T02:12:46.500Z,9.03
2019-01-16T02:13:41.809Z,8.60
2019-01-16T02:14:30.707Z,8.85
2019-01-16T02:15:30.406Z,9.50
2019-01-16T02:16:33.997Z,8.55
2019-01-16T02:17:41.463Z,8.88
2019-01-16T02:18:38.473Z,8.93
2019-01-16T02:19:39.947Z,9.10
2019-01-16T02:20:37.211Z,8.55
2019-01-16T02:21:44.587Z,9.45
2019-01-16T02:22:40.489Z,8.63
2019-01-16T02:23:43.980Z,8.70
2019-01-16T02:24:56.603Z,9.08
2019-01-16T02:25:56.065Z,8.50
2019-01-16T02:27:01.706Z,9.43
2019-01-16T02:28:14.104Z,8.18
2019-01-16T02:29:14.972Z,8.53
2019-01-16T02:30:12.163Z,7.75
2019-01-16T02:31:15.614Z,8.10
2019-01-16T02:32:11.885Z,7.97
2019-01-16T02:33:18.327Z,8.30
2019-01-16T02:34:11.019Z,8.57
2019-01-16T02:35:11.506Z,8.80
2019-01-16T02:36:08.897Z,8.70
2019-01-16T02:36:59.048Z,8.97
2019-01-16T02:37:46.860Z,8.33
2019-01-16T02:38:48.068Z,8.07
2019-01-16T02:39:47.603Z,8.83
2019-01-16T02:40:44.807Z,9.13
2019-01-16T02:41:54.442Z,8.33
2019-01-16T02:42:43.621Z,8.13
2019-01-16T02:43:34.977Z,8.80
2019-01-16T02:44:32.125Z,7.70
2019-01-16T02:45:32.965Z,8.90
2019-01-16T02:46:26.808Z,8.45
2019-01-16T02:47:35.845Z,7.72
2019-01-16T02:48:32.976Z,8.03
2019-01-16T02:49:37.332Z,8.10
2019-01-16T02:50:42.601Z,8.40
2019-01-16T02:51:40.229Z,7.97
2019-01-16T02:52:30.354Z,8.80
2019-01-16T02:53:27.033Z,8.53
2019-01-16T02:54:23.649Z,7.90
2019-01-16T02:55:18.741Z,8.25
2019-01-16T02:56:06.814Z,8.30
2019-01-16T02:57:08.950Z,8.33
2019-01-16T02:58:01.238Z,8.15
2019-01-16T02:59:04.960Z,7.90
2019-01-16T03:00:08.677Z,7.95
2019-01-16T03:01:02.750Z,8.03
2019-01-16T03:01:58.722Z,8.83
2019-01-16T03:02:58.746Z,8.55
2019-01-16T03:03:54.572Z,7.43
2019-01-16T03:04:51.820Z,7.33
2019-01-16T03:05:55.223Z,8.10
2019-01-16T03:06:51.926Z,8.50
2019-01-16T03:07:55.519Z,8.48
2019-01-16T03:08:52.829Z,8.40
2019-01-16T03:09:55.948Z,7.33
2019-01-16T03:10:50.660Z,7.90
2019-01-16T03:11:50.553Z,8.53
2019-01-16T03:12:46.958Z,7.97
2019-01-16T03:13:42.347Z,7.97
2019-01-16T03:14:43.891Z,8.80
2019-01-16T03:15:54.039Z,8.13
2019-01-16T03:17:00.446Z,7.50
2019-01-16T03:17:55.687Z,8.20
2019-01-16T03:18:51.583Z,8.30
2019-01-16T03:19:47.410Z,7.77
2019-01-16T03:20:50.511Z,7.65
2019-01-16T03:21:46.083Z,7.65
2019-01-16T03:23:01.465Z,8.10
2019-01-16T03:23:57.422Z,7.60
2019-01-16T03:24:47.758Z,6.60
2019-01-16T03:25:42.198Z,7.77
2019-01-16T03:26:33.112Z,8.40
2019-01-16T03:27:32.998Z,7.53
2019-01-16T03:28:20.594Z,7.30
2019-01-16T03:29:15.935Z,7.90
2019-01-16T03:30:20.355Z,8.20
2019-01-16T03:31:05.294Z,7.67
2019-01-16T03:31:56.967Z,7.53
2019-01-16T03:32:53.542Z,7.87
2019-01-16T03:33:53.795Z,7.35
2019-01-16T03:34:49.848Z,8.10
2019-01-16T03:35:57.523Z,9.10
2019-01-16T03:36:52.957Z,8.03
2019-01-16T03:37:42.086Z,8.33
2019-01-16T03:38:45.783Z,7.80
2019-01-16T03:39:55.369Z,7.03
2019-01-16T03:40:55.762Z,7.95
2019-01-16T03:42:08.133Z,7.60
2019-01-16T03:43:23.799Z,7.70
2019-01-16T03:44:21.646Z,7.60
2019-01-16T03:45:17.016Z,8.20
2019-01-16T03:46:12.439Z,8.10
2019-01-16T03:47:03.484Z,7.70
2019-01-16T03:48:01.097Z,8.30
2019-01-16T03:48:56.822Z,7.73
2019-01-16T03:49:52.921Z,7.40
2019-01-16T03:50:48.725Z,8.00
2019-01-16T03:51:57.645Z,8.27
2019-01-16T03:52:52.801Z,8.00
2019-01-16T03:53:57.243Z,8.35
2019-01-16T03:55:03.691Z,8.50
2019-01-16T03:56:13.252Z,9.10
2019-01-16T03:57:12.863Z,8.40
2019-01-16T03:58:18.607Z,7.90
2019-01-16T03:59:13.839Z,7.45
2019-01-16T04:00:08.822Z,8.50
2019-01-16T04:01:10.630Z,8.17
2019-01-16T04:02:16.598Z,7.40
2019-01-16T04:03:11.978Z,8.43
2019-01-16T04:04:17.585Z,7.57
2019-01-16T04:05:23.228Z,7.30
2019-01-16T04:06:23.034Z,7.33
2019-01-16T04:07:14.634Z,7.57
2019-01-16T04:08:07.188Z,7.60
2019-01-16T04:09:06.738Z,8.10
2019-01-16T04:10:06.000Z,7.93
2019-01-16T04:11:01.079Z,7.90
2019-01-16T04:11:56.571Z,7.70
2019-01-16T04:12:42.534Z,6.90
2019-01-16T04:13:44.516Z,7.72
2019-01-16T04:14:44.067Z,7.00
2019-01-16T04:15:37.957Z,8.57
2019-01-16T04:16:52.884Z,7.45
2019-01-16T04:17:38.811Z,8.40
2019-01-16T04:18:44.558Z,7.87
2019-01-16T04:19:41.297Z,6.50
2019-01-16T04:20:32.431Z,7.10
2019-01-16T04:21:26.861Z,7.53
2019-01-16T04:22:26.439Z,7.37
2019-01-16T04:23:35.300Z,7.60
2019-01-16T04:24:36.049Z,7.87
2019-01-16T04:25:47.455Z,7.83
2019-01-16T04:26:55.849Z,7.47
2019-01-16T04:27:51.194Z,8.20
2019-01-16T04:28:41.081Z,7.63
2019-01-16T04:29:44.474Z,7.60
2019-01-16T04:30:39.772Z,7.20
2019-01-16T04:31:32.948Z,7.60
2019-01-16T04:32:41.486Z,7.10
2019-01-16T04:33:45.524Z,8.23
2019-01-16T04:34:45.835Z,8.55
2019-01-16T04:35:41.343Z,8.37
2019-01-16T04:36:47.815Z,9.20
2019-01-16T04:37:44.314Z,8.93
2019-01-16T04:38:42.578Z,10.10
2019-01-16T04:39:39.226Z,8.63
2019-01-16T04:40:26.157Z,8.20
2019-01-16T04:41:29.532Z,8.80
2019-01-16T04:42:25.204Z,8.50
2019-01-16T04:43:34.427Z,8.63
2019-01-16T04:44:39.036Z,7.90
2019-01-16T04:45:27.778Z,7.60
2019-01-16T04:46:24.199Z,8.00
2019-01-16T04:47:30.213Z,8.33
2019-01-16T04:48:39.233Z,9.10
2019-01-16T04:49:33.186Z,8.30
2019-01-16T04:50:39.309Z,7.60
2019-01-16T04:51:34.508Z,8.00
2019-01-16T04:52:38.794Z,7.57
2019-01-16T04:53:55.321Z,8.70
2019-01-16T04:55:10.957Z,7.73
2019-01-16T04:56:19.549Z,7.40
2019-01-16T04:57:31.610Z,7.80
2019-01-16T04:58:27.872Z,8.10
2019-01-16T04:59:20.409Z,7.30
2019-01-16T05:00:14.125Z,7.07
2019-01-16T05:01:20.068Z,7.47
2019-01-16T05:02:23.549Z,7.50
2019-01-16T05:03:19.634Z,8.47
2019-01-16T05:04:16.324Z,7.80
2019-01-16T05:05:16.653Z,7.63
2019-01-16T05:06:13.124Z,7.60
2019-01-16T05:07:17.593Z,8.27
2019-01-16T05:08:20.145Z,7.10
2019-01-16T05:09:23.036Z,7.23
2019-01-16T05:10:38.483Z,7.83
2019-01-16T05:11:35.835Z,7.70
2019-01-16T05:12:40.404Z,8.38
2019-01-16T05:13:40.179Z,7.57
2019-01-16T05:14:33.716Z,6.83
2019-01-16T05:15:29.417Z,7.47
2019-01-16T05:16:29.522Z,8.98
2019-01-16T05:17:25.498Z,7.33
2019-01-16T05:18:32.512Z,7.97
2019-01-16T05:19:38.376Z,7.33
2019-01-16T05:20:36.190Z,7.00
2019-01-16T05:21:40.200Z,8.80
2019-01-16T05:22:36.056Z,8.20
2019-01-16T05:23:43.163Z,6.60
2019-01-16T05:24:41.271Z,8.47
2019-01-16T05:25:36.826Z,7.70
2019-01-16T05:26:40.224Z,7.33
2019-01-16T05:27:35.601Z,7.10
2019-01-16T05:28:45.874Z,7.65
2019-01-16T05:29:43.135Z,6.90
2019-01-16T05:30:39.435Z,6.80
2019-01-16T05:31:42.318Z,6.97
2019-01-16T05:32:43.966Z,7.77
2019-01-16T05:33:30.693Z,7.80
2019-01-16T05:34:40.141Z,8.03
2019-01-16T05:35:31.249Z,7.53
2019-01-16T05:36:19.937Z,7.30
2019-01-16T05:37:15.855Z,8.20
2019-01-16T05:38:16.517Z,7.00
2019-01-16T05:39:26.590Z,6.00
2019-01-16T05:40:20.546Z,7.83
2019-01-16T05:41:17.693Z,6.47
2019-01-16T05:42:14.834Z,7.13
2019-01-16T05:43:21.381Z,6.53
2019-01-16T05:44:30.515Z,7.33
2019-01-16T05:45:31.393Z,7.37
2019-01-16T05:46:29.549Z,6.40
2019-01-16T05:47:26.744Z,7.07
2019-01-16T05:48:24.197Z,7.47
2019-01-16T05:49:29.843Z,6.67
2019-01-16T05:50:23.289Z,6.60
2019-01-16T05:51:17.538Z,7.63
2019-01-16T05:52:23.654Z,7.03
2019-01-16T05:53:32.570Z,6.30
2019-01-16T05:54:44.427Z,6.93
2019-01-16T05:55:56.353Z,6.20
2019-01-16T05:56:51.572Z,6.60
2019-01-16T05:57:46.574Z,7.00
2019-01-16T05:58:34.485Z,6.70
2019-01-16T05:59:29.725Z,6.90
2019-01-16T06:00:21.790Z,7.10
2019-01-16T06:01:18.436Z,7.20
2019-01-16T06:02:13.451Z,6.50
2019-01-16T06:03:08.441Z,6.60
2019-01-16T06:04:04.285Z,6.03
2019-01-16T06:05:13.170Z,6.20
2019-01-16T06:06:08.385Z,6.70
2019-01-16T06:07:04.321Z,6.60
2019-01-16T06:07:55.363Z,6.77
2019-01-16T06:09:10.247Z,6.60
2019-01-16T06:10:05.277Z,6.30
2019-01-16T06:10:54.232Z,5.93
2019-01-16T06:11:58.287Z,5.93
2019-01-16T06:12:53.131Z,6.50
2019-01-16T06:13:52.547Z,6.43
2019-01-16T06:14:47.581Z,6.80
2019-01-16T06:15:36.364Z,6.90
2019-01-16T06:16:33.126Z,6.07
2019-01-16T06:17:39.042Z,6.23
2019-01-16T06:18:42.898Z,6.27
2019-01-16T06:19:39.946Z,7.27
2019-01-16T06:20:55.499Z,6.50
2019-01-16T06:22:04.145Z,5.77
2019-01-16T06:23:13.010Z,5.57
2019-01-16T06:24:08.369Z,6.50
2019-01-16T06:25:19.933Z,6.23
2019-01-16T06:26:16.326Z,6.10
2019-01-16T06:27:11.184Z,5.47
2019-01-16T06:28:18.256Z,6.17
2019-01-16T06:29:18.998Z,5.80
2019-01-16T06:30:17.155Z,6.57
2019-01-16T06:31:14.842Z,6.77
2019-01-16T06:32:24.663Z,5.90
2019-01-16T06:33:24.800Z,6.00
2019-01-16T06:34:28.271Z,6.10
2019-01-16T06:35:24.889Z,6.17
2019-01-16T06:36:28.286Z,6.50
2019-01-16T06:37:24.574Z,5.50
2019-01-16T06:38:34.352Z,5.77
2019-01-16T06:39:24.000Z,6.70
2019-01-16T06:40:23.908Z,6.20
2019-01-16T06:41:26.836Z,6.20
2019-01-16T06:42:26.876Z,6.70
2019-01-16T06:43:23.710Z,6.50
2019-01-16T06:44:30.857Z,5.77
2019-01-16T06:45:23.245Z,6.20
2019-01-16T06:46:23.730Z,5.83
2019-01-16T06:47:27.211Z,6.20
2019-01-16T06:48:27.386Z,5.93
2019-01-16T06:49:36.818Z,6.03
2019-01-16T06:50:25.998Z,7.17
2019-01-16T06:51:22.441Z,6.17
2019-01-16T06:52:19.754Z,5.67
2019-01-16T06:53:15.788Z,6.40
2019-01-16T06:54:11.479Z,5.37
2019-01-16T06:55:07.436Z,5.90
2019-01-16T06:56:16.842Z,6.63
2019-01-16T06:57:14.891Z,5.87
2019-01-16T06:58:07.820Z,5.60
2019-01-16T06:59:01.416Z,5.67
2019-01-16T07:00:07.639Z,5.90
2019-01-16T07:01:02.966Z,5.83
2019-01-16T07:01:57.943Z,5.50
2019-01-16T07:03:04.484Z,6.40
2019-01-16T07:04:00.369Z,6.33
2019-01-16T07:05:06.937Z,5.80
2019-01-16T07:06:09.070Z,6.30
2019-01-16T07:07:14.026Z,5.87
2019-01-16T07:08:10.028Z,6.63
2019-01-16T07:09:13.746Z,6.23
2019-01-16T07:10:04.123Z,6.03
2019-01-16T07:10:55.837Z,6.30
2019-01-16T07:11:56.664Z,5.97
2019-01-16T07:12:59.609Z,5.30
2019-01-16T07:13:46.772Z,5.90
2019-01-16T07:14:42.964Z,5.93
2019-01-16T07:15:43.574Z,5.70
2019-01-16T07:16:37.350Z,6.27
2019-01-16T07:17:40.408Z,6.10
2019-01-16T07:18:55.686Z,6.40
2019-01-16T07:19:59.480Z,6.00
2019-01-16T07:20:54.268Z,6.03
2019-01-16T07:21:50.180Z,6.30
2019-01-16T07:22:52.851Z,5.80
2019-01-16T07:23:48.926Z,6.37
2019-01-16T07:24:45.394Z,5.90
2019-01-16T07:25:42.037Z,5.10
2019-01-16T07:26:41.862Z,5.50
2019-01-16T07:27:48.618Z,5.80
2019-01-16T07:28:57.935Z,6.27
2019-01-16T07:29:53.113Z,6.10
2019-01-16T07:30:47.175Z,5.77
2019-01-16T07:31:51.175Z,5.50
2019-01-16T07:32:57.363Z,5.30
2019-01-16T07:33:54.903Z,6.03
2019-01-16T07:34:59.184Z,6.20
2019-01-16T07:35:56.673Z,6.30
2019-01-16T07:36:51.083Z,4.73
2019-01-16T07:38:00.243Z,5.63
2019-01-16T07:38:52.769Z,5.50
2019-01-16T07:39:49.190Z,5.53
2019-01-16T07:40:46.531Z,5.57
2019-01-16T07:41:42.781Z,5.57
2019-01-16T07:42:38.746Z,5.40
2019-01-16T07:43:34.608Z,5.40
2019-01-16T07:44:47.862Z,5.80
2019-01-16T07:45:44.284Z,4.50
2019-01-16T07:46:41.540Z,5.17
2019-01-16T07:47:50.220Z,5.50
2019-01-16T07:48:58.742Z,5.90
2019-01-16T07:49:55.513Z,6.10
2019-01-16T07:50:54.965Z,5.50
2019-01-16T07:52:00.302Z,6.03
2019-01-16T07:53:10.863Z,4.97
2019-01-16T07:54:25.491Z,4.90
2019-01-16T07:55:20.728Z,5.97
2019-01-16T07:56:26.458Z,4.70
2019-01-16T07:57:21.420Z,5.23
2019-01-16T07:58:22.088Z,5.10
2019-01-16T07:59:24.747Z,5.70
2019-01-16T08:00:21.505Z,5.70
2019-01-16T08:01:18.231Z,6.17
2019-01-16T08:02:21.374Z,4.80
2019-01-16T08:03:27.378Z,5.50
2019-01-16T08:04:22.032Z,5.30
2019-01-16T08:05:33.721Z,5.13
2019-01-16T08:06:28.909Z,4.67
2019-01-16T08:07:23.846Z,5.27
2019-01-16T08:08:23.473Z,4.50
2019-01-16T08:09:22.046Z,4.83
2019-01-16T08:10:33.695Z,5.23
2019-01-16T08:11:33.095Z,5.57
2019-01-16T08:12:44.893Z,5.80
2019-01-16T08:13:40.051Z,4.97
2019-01-16T08:14:34.972Z,5.33
2019-01-16T08:15:32.348Z,5.97
2019-01-16T08:16:41.233Z,5.50
2019-01-16T08:17:49.616Z,5.07
2019-01-16T08:18:55.155Z,5.70
2019-01-16T08:20:01.475Z,6.10
2019-01-16T08:21:04.374Z,5.47
2019-01-16T08:21:59.439Z,5.93
2019-01-16T08:23:03.158Z,5.10
2019-01-16T08:24:02.952Z,5.33
2019-01-16T08:25:12.378Z,5.53
2019-01-16T08:26:09.107Z,4.93
2019-01-16T08:27:05.729Z,5.27
2019-01-16T08:28:02.367Z,6.20
2019-01-16T08:28:57.413Z,5.53
2019-01-16T08:30:06.338Z,5.40
2019-01-16T08:31:09.059Z,5.13
2019-01-16T08:32:22.726Z,5.37
2019-01-16T08:33:23.087Z,5.50
2019-01-16T08:34:25.976Z,5.20
2019-01-16T08:35:12.557Z,5.30
2019-01-16T08:36:07.104Z,5.20
2019-01-16T08:37:02.736Z,6.57
2019-01-16T08:37:58.790Z,5.43
2019-01-16T08:38:57.666Z,5.43
2019-01-16T08:39:54.044Z,5.10
2019-01-16T08:40:53.606Z,5.00
2019-01-16T08:42:03.549Z,5.37
2019-01-16T08:42:52.769Z,5.07
2019-01-16T08:43:53.445Z,5.83
2019-01-16T08:44:53.265Z,5.47
2019-01-16T08:45:51.331Z,5.60
2019-01-16T08:46:46.893Z,5.30
2019-01-16T08:47:42.545Z,4.97
2019-01-16T08:48:43.920Z,4.97
2019-01-16T08:49:46.630Z,5.00
2019-01-16T08:50:44.387Z,5.40
2019-01-16T08:51:41.152Z,5.67
2019-01-16T08:52:41.327Z,5.53
2019-01-16T08:53:37.284Z,5.07
2019-01-16T08:54:37.069Z,5.00
2019-01-16T08:55:32.856Z,5.20
2019-01-16T08:56:42.669Z,5.70
2019-01-16T08:57:52.527Z,5.40
2019-01-16T08:58:49.984Z,5.77
2019-01-16T08:59:42.773Z,5.07
2019-01-16T09:00:38.408Z,5.80
2019-01-16T09:01:35.342Z,5.50
2019-01-16T09:02:25.613Z,5.10
2019-01-16T09:03:41.160Z,5.30
2019-01-16T09:04:37.498Z,4.93
2019-01-16T09:05:43.659Z,6.23
2019-01-16T09:06:44.086Z,6.10
2019-01-16T09:07:47.763Z,5.43
2019-01-16T09:08:44.807Z,5.80
2019-01-16T09:09:51.376Z,5.20
2019-01-16T09:10:47.657Z,5.77
2019-01-16T09:11:43.203Z,5.30
2019-01-16T09:12:48.894Z,5.00
2019-01-16T09:13:46.172Z,5.90
2019-01-16T09:14:49.341Z,4.90
2019-01-16T09:15:54.864Z,4.90
2019-01-16T09:16:45.788Z,5.43
2019-01-16T09:17:37.335Z,5.63
2019-01-16T09:18:37.393Z,6.10
2019-01-16T09:19:30.065Z,4.80
2019-01-16T09:20:43.956Z,5.87
2019-01-16T09:21:50.030Z,5.03
2019-01-16T09:22:44.939Z,4.77
2019-01-16T09:23:39.500Z,5.17
2019-01-16T09:24:33.271Z,5.53
2019-01-16T09:25:30.283Z,5.67
2019-01-16T09:26:27.717Z,5.20
2019-01-16T09:27:28.129Z,6.03
2019-01-16T09:28:31.015Z,4.80
2019-01-16T09:29:28.662Z,5.40
2019-01-16T09:30:24.321Z,5.47
2019-01-16T09:31:27.395Z,6.13
2019-01-16T09:32:30.544Z,5.00
2019-01-16T09:33:27.320Z,5.37
2019-01-16T09:34:23.743Z,5.83
2019-01-16T09:35:28.928Z,5.00
2019-01-16T09:36:32.366Z,5.13
2019-01-16T09:37:29.763Z,4.80
2019-01-16T09:38:36.426Z,5.60
2019-01-16T09:39:38.893Z,5.80
2019-01-16T09:40:41.636Z,5.00
2019-01-16T09:41:37.774Z,4.87
2019-01-16T09:42:38.057Z,5.60
2019-01-16T09:43:29.167Z,6.10
2019-01-16T09:44:31.362Z,5.60
2019-01-16T09:45:46.778Z,5.27
2019-01-16T09:46:43.413Z,5.77
2019-01-16T09:47:46.483Z,5.20
2019-01-16T09:48:35.626Z,4.90
2019-01-16T09:49:31.876Z,4.60
2019-01-16T09:50:18.511Z,4.90
2019-01-16T09:51:10.743Z,5.17
2019-01-16T09:52:01.700Z,5.20
2019-01-16T09:53:03.177Z,5.70
2019-01-16T09:54:05.141Z,5.83
2019-01-16T09:55:00.379Z,5.90
2019-01-16T09:56:15.142Z,5.80
2019-01-16T09:57:10.431Z,6.00
2019-01-16T09:58:13.197Z,5.20
2019-01-16T09:59:08.525Z,6.03
2019-01-16T10:00:08.310Z,5.63
2019-01-16T10:01:13.882Z,5.70
2019-01-16T10:02:03.860Z,5.30
2019-01-16T10:02:58.733Z,6.10
2019-01-16T10:03:53.949Z,5.00
2019-01-16T10:04:41.003Z,5.83
2019-01-16T10:05:41.722Z,6.00
2019-01-16T10:06:30.220Z,5.30
2019-01-16T10:07:33.148Z,5.43
2019-01-16T10:08:24.068Z,5.80
2019-01-16T10:09:19.016Z,5.00
2019-01-16T10:10:14.201Z,5.63
2019-01-16T10:11:09.236Z,5.90
2019-01-16T10:12:05.948Z,5.40
2019-01-16T10:12:59.959Z,5.20
2019-01-16T10:13:59.490Z,5.10
2019-01-16T10:14:50.781Z,5.57
2019-01-16T10:15:53.566Z,5.30
2019-01-16T10:16:53.297Z,5.20
2019-01-16T10:17:48.526Z,5.47
2019-01-16T10:18:45.278Z,5.50
2019-01-16T10:19:42.023Z,5.30
2019-01-16T10:20:47.572Z,5.20
2019-01-16T10:21:50.250Z,5.80
2019-01-16T10:22:37.641Z,5.30
2019-01-16T10:23:41.191Z,5.07
2019-01-16T10:24:41.292Z,4.80
2019-01-16T10:25:27.077Z,5.57
2019-01-16T10:26:16.510Z,6.50
2019-01-16T10:27:12.450Z,6.70
2019-01-16T10:28:21.040Z,5.80
2019-01-16T10:29:16.489Z,5.40
2019-01-16T10:30:32.632Z,6.10
2019-01-16T10:31:44.724Z,5.70
2019-01-16T10:32:55.560Z,5.67
2019-01-16T10:33:49.745Z,5.47
2019-01-16T10:34:57.029Z,5.70
2019-01-16T10:36:00.419Z,5.80
2019-01-16T10:37:03.366Z,5.63
2019-01-16T10:37:55.584Z,5.90
2019-01-16T10:39:07.602Z,5.93
2019-01-16T10:40:16.407Z,4.97
2019-01-16T10:41:11.906Z,5.57
2019-01-16T10:42:11.934Z,5.80
2019-01-16T10:43:15.614Z,6.10
2019-01-16T10:44:04.061Z,5.73
2019-01-16T10:45:04.673Z,6.30
2019-01-16T10:46:05.360Z,5.90
2019-01-16T10:47:03.306Z,5.83
2019-01-16T10:47:54.690Z,5.90
2019-01-16T10:49:09.947Z,6.10
2019-01-16T10:50:07.369Z,6.00
2019-01-16T10:50:54.522Z,6.70
2019-01-16T10:51:49.942Z,6.90
2019-01-16T10:52:46.118Z,6.83
2019-01-16T10:53:43.722Z,6.50
2019-01-16T10:54:33.359Z,6.37
2019-01-16T10:55:21.261Z,6.40
2019-01-16T10:56:16.925Z,7.10
2019-01-16T10:57:26.925Z,6.00
2019-01-16T10:58:33.561Z,6.17
2019-01-16T10:59:28.932Z,5.90
2019-01-16T11:00:25.854Z,5.90
2019-01-16T11:01:18.227Z,6.30
2019-01-16T11:02:17.984Z,5.40
2019-01-16T11:03:13.401Z,5.93
2019-01-16T11:04:13.417Z,6.20
2019-01-16T11:05:10.610Z,6.07
2019-01-16T11:06:07.983Z,5.53
2019-01-16T11:07:19.842Z,6.50
2019-01-16T11:08:32.860Z,5.93
2019-01-16T11:09:23.810Z,6.40
2019-01-16T11:10:20.080Z,6.03
2019-01-16T11:11:16.104Z,5.70
2019-01-16T11:12:11.466Z,7.03
2019-01-16T11:13:08.255Z,6.20
2019-01-16T11:14:06.626Z,5.87
2019-01-16T11:15:02.739Z,6.13
2019-01-16T11:16:00.053Z,7.03
2019-01-16T11:17:04.535Z,6.67
2019-01-16T11:18:00.029Z,5.87
2019-01-16T11:19:06.393Z,6.17
2019-01-16T11:20:01.831Z,5.97
2019-01-16T11:20:57.370Z,6.30
2019-01-16T11:21:52.815Z,5.80
2019-01-16T11:22:48.699Z,6.50
2019-01-16T11:23:54.670Z,6.47
2019-01-16T11:24:52.100Z,5.50
2019-01-16T11:25:47.198Z,6.87
2019-01-16T11:26:40.274Z,5.97
2019-01-16T11:27:32.132Z,6.23
2019-01-16T11:28:28.387Z,5.90
2019-01-16T11:29:25.995Z,6.20
2019-01-16T11:30:41.618Z,6.70
2019-01-16T11:31:43.858Z,6.43
2019-01-16T11:32:59.601Z,5.80
2019-01-16T11:33:56.687Z,6.53
2019-01-16T11:35:03.129Z,6.67
2019-01-16T11:36:09.178Z,7.33
2019-01-16T11:37:06.866Z,6.80
2019-01-16T11:38:02.634Z,6.50
2019-01-16T11:38:59.964Z,6.73
2019-01-16T11:40:05.835Z,6.90
2019-01-16T11:41:21.385Z,7.27
2019-01-16T11:42:28.482Z,6.67
2019-01-16T11:43:31.478Z,6.50
2019-01-16T11:44:34.732Z,6.23
2019-01-16T11:45:26.482Z,6.63
2019-01-16T11:46:26.707Z,6.40
2019-01-16T11:47:22.804Z,6.80
2019-01-16T11:48:18.829Z,7.13
2019-01-16T11:49:24.556Z,6.83
2019-01-16T11:50:37.235Z,6.90
2019-01-16T11:51:46.874Z,6.67
2019-01-16T11:52:47.207Z,6.53
2019-01-16T11:53:57.109Z,6.47
2019-01-16T11:54:53.323Z,6.40
2019-01-16T11:55:55.975Z,6.90
2019-01-16T11:57:04.942Z,6.60
2019-01-16T11:58:14.302Z,5.83
2019-01-16T11:59:20.257Z,7.20
2019-01-16T12:00:19.901Z,6.90
2019-01-16T12:01:14.765Z,6.93
2019-01-16T12:02:10.586Z,5.80
2019-01-16T12:03:00.524Z,6.50
2019-01-16T12:04:15.458Z,6.80
2019-01-16T12:05:12.145Z,7.73
2019-01-16T12:06:04.901Z,7.37
2019-01-16T12:07:01.767Z,6.80
2019-01-16T12:08:16.571Z,7.00
2019-01-16T12:09:31.461Z,7.60
2019-01-16T12:10:38.611Z,7.30
2019-01-16T12:11:38.926Z,6.37
2019-01-16T12:12:36.893Z,6.50
2019-01-16T12:13:42.502Z,6.67
2019-01-16T12:14:41.842Z,6.90
2019-01-16T12:15:36.933Z,7.37
2019-01-16T12:16:33.373Z,7.40
2019-01-16T12:17:33.686Z,7.63
2019-01-16T12:18:36.335Z,7.33
2019-01-16T12:19:31.585Z,7.70
2019-01-16T12:20:29.661Z,8.20
2019-01-16T12:21:26.517Z,7.77
2019-01-16T12:22:16.920Z,7.87
2019-01-16T12:23:16.721Z,8.20
2019-01-16T12:24:13.725Z,7.50
2019-01-16T12:25:09.980Z,7.40
2019-01-16T12:26:17.765Z,7.20
2019-01-16T12:27:30.185Z,7.77
2019-01-16T12:28:25.078Z,7.90
2019-01-16T12:29:34.509Z,8.50
2019-01-16T12:30:34.130Z,8.00
2019-01-16T12:31:20.272Z,7.50
2019-01-16T12:32:32.797Z,7.40
2019-01-16T12:33:30.137Z,8.57
2019-01-16T12:34:27.874Z,7.97
2019-01-16T12:35:25.287Z,8.30
2019-01-16T12:36:26.676Z,8.00
2019-01-16T12:37:24.639Z,8.63
2019-01-16T12:38:24.777Z,8.70
2019-01-16T12:39:22.569Z,8.90
2019-01-16T12:40:25.984Z,8.03
2019-01-16T12:41:17.978Z,8.10
2019-01-16T12:42:21.692Z,8.50
2019-01-16T12:43:14.934Z,8.87
2019-01-16T12:44:14.769Z,8.83
2019-01-16T12:45:18.303Z,8.27
2019-01-16T12:46:21.417Z,8.80
2019-01-16T12:47:17.524Z,8.53
2019-01-16T12:48:06.432Z,9.20
2019-01-16T12:49:01.571Z,8.37
2019-01-16T12:50:05.682Z,8.33
2019-01-16T12:51:07.946Z,8.73
2019-01-16T12:52:07.526Z,8.20
2019-01-16T12:53:04.876Z,8.00
2019-01-16T12:53:57.812Z,8.07
2019-01-16T12:55:04.438Z,8.43
2019-01-16T12:55:58.985Z,8.60
2019-01-16T12:57:02.840Z,9.00
2019-01-16T12:58:13.502Z,8.10
2019-01-16T12:59:09.702Z,9.60
2019-01-16T13:00:16.340Z,8.60
2019-01-16T13:01:13.965Z,8.67
2019-01-16T13:02:11.582Z,8.83
2019-01-16T13:03:08.693Z,8.67
2019-01-16T13:04:06.705Z,9.57
2019-01-16T13:05:06.775Z,8.47
2019-01-16T13:06:02.485Z,9.23
2019-01-16T13:06:56.823Z,8.97
2019-01-16T13:07:57.462Z,9.40
2019-01-16T13:09:09.476Z,9.20
2019-01-16T13:10:14.851Z,9.10
2019-01-16T13:11:20.837Z,8.60
2019-01-16T13:12:23.624Z,8.93
2019-01-16T13:13:20.460Z,8.17
2019-01-16T13:14:21.151Z,8.20
2019-01-16T13:15:18.721Z,7.73
2019-01-16T13:16:21.698Z,8.30
2019-01-16T13:17:09.037Z,8.63